sensor_id;sensor_type;location;lat;lon;timestamp;P1;durP1;ratioP1;P2;durP2;ratioP2
651;SDS011;310;48.490;9.200;2023-04-10T00:01:49;1.90;;;1.10;;
651;SDS011;310;48.490;9.200;2023-04-10T00:04:15;2.97;;;1.53;;
651;SDS011;310;48.490;9.200;2023-04-10T00:06:40;2.00;;;1.20;;
651;SDS011;310;48.490;9.200;2023-04-10T00:09:07;2.10;;;1.33;;
651;SDS011;310;48.490;9.200;2023-04-10T00:11:33;3.00;;;1.45;;
651;SDS011;310;48.490;9.200;2023-04-10T00:13:58;2.20;;;1.40;;
651;SDS011;310;48.490;9.200;2023-04-10T00:16:24;2.17;;;1.33;;
651;SDS011;310;48.490;9.200;2023-04-10T00:18:50;2.43;;;1.50;;
651;SDS011;310;48.490;9.200;2023-04-10T00:21:16;2.00;;;1.20;;
651;SDS011;310;48.490;9.200;2023-04-10T00:23:42;2.00;;;1.20;;
651;SDS011;310;48.490;9.200;2023-04-10T00:26:07;2.00;;;1.20;;
651;SDS011;310;48.490;9.200;2023-04-10T00:28:33;2.10;;;1.30;;
651;SDS011;310;48.490;9.200;2023-04-10T00:31:02;2.63;;;1.40;;
651;SDS011;310;48.490;9.200;2023-04-10T00:33:30;1.95;;;1.10;;
651;SDS011;310;48.490;9.200;2023-04-10T00:35:56;1.93;;;1.10;;
651;SDS011;310;48.490;9.200;2023-04-10T00:38:22;1.90;;;1.10;;
651;SDS011;310;48.490;9.200;2023-04-10T00:40:47;2.30;;;1.63;;
651;SDS011;310;48.490;9.200;2023-04-10T00:43:13;2.30;;;1.50;;
651;SDS011;310;48.490;9.200;2023-04-10T00:45:39;2.40;;;1.40;;
651;SDS011;310;48.490;9.200;2023-04-10T00:48:05;2.00;;;1.20;;
651;SDS011;310;48.490;9.200;2023-04-10T00:50:31;2.00;;;1.20;;
651;SDS011;310;48.490;9.200;2023-04-10T00:52:57;2.73;;;1.30;;
651;SDS011;310;48.490;9.200;2023-04-10T00:55:23;2.00;;;1.20;;
651;SDS011;310;48.490;9.200;2023-04-10T00:57:50;1.90;;;1.10;;
651;SDS011;310;48.490;9.200;2023-04-10T01:00:16;1.90;;;1.10;;
651;SDS011;310;48.490;9.200;2023-04-10T01:02:42;2.00;;;1.23;;
651;SDS011;310;48.490;9.200;2023-04-10T01:05:08;2.00;;;1.23;;
651;SDS011;310;48.490;9.200;2023-04-10T01:13:26;4.20;;;1.73;;
651;SDS011;310;48.490;9.200;2023-04-10T01:16:00;2.28;;;1.42;;
651;SDS011;310;48.490;9.200;2023-04-10T01:18:43;3.20;;;1.52;;
651;SDS011;310;48.490;9.200;2023-04-10T01:21:14;2.08;;;1.40;;
651;SDS011;310;48.490;9.200;2023-04-10T01:26:45;2.05;;;1.25;;
651;SDS011;310;48.490;9.200;2023-04-10T01:29:24;2.00;;;1.25;;
651;SDS011;310;48.490;9.200;2023-04-10T01:31:56;2.00;;;1.25;;
651;SDS011;310;48.490;9.200;2023-04-10T01:34:27;1.98;;;1.20;;
651;SDS011;310;48.490;9.200;2023-04-10T01:37:21;1.90;;;1.10;;
651;SDS011;310;48.490;9.200;2023-04-10T01:40:01;1.95;;;1.17;;
651;SDS011;310;48.490;9.200;2023-04-10T01:42:31;1.90;;;1.10;;
651;SDS011;310;48.490;9.200;2023-04-10T01:45:02;2.03;;;1.30;;
651;SDS011;310;48.490;9.200;2023-04-10T01:47:30;1.92;;;1.10;;
651;SDS011;310;48.490;9.200;2023-04-10T01:49:56;2.10;;;1.43;;
651;SDS011;310;48.490;9.200;2023-04-10T01:52:23;2.10;;;1.30;;
651;SDS011;310;48.490;9.200;2023-04-10T01:54:50;2.22;;;1.30;;
651;SDS011;310;48.490;9.200;2023-04-10T01:57:17;1.90;;;1.20;;
651;SDS011;310;48.490;9.200;2023-04-10T01:59:43;2.03;;;1.30;;
651;SDS011;310;48.490;9.200;2023-04-10T02:02:08;1.90;;;1.13;;
651;SDS011;310;48.490;9.200;2023-04-10T02:04:37;2.00;;;1.30;;
651;SDS011;310;48.490;9.200;2023-04-10T02:12:15;2.10;;;1.42;;
651;SDS011;310;48.490;9.200;2023-04-10T02:14:47;1.90;;;1.13;;
651;SDS011;310;48.490;9.200;2023-04-10T02:17:16;2.33;;;1.48;;
651;SDS011;310;48.490;9.200;2023-04-10T02:19:45;1.95;;;1.20;;
651;SDS011;310;48.490;9.200;2023-04-10T02:22:12;1.90;;;1.13;;
651;SDS011;310;48.490;9.200;2023-04-10T02:24:39;2.28;;;1.30;;
651;SDS011;310;48.490;9.200;2023-04-10T02:27:05;2.07;;;1.23;;
651;SDS011;310;48.490;9.200;2023-04-10T02:29:31;2.00;;;1.30;;
651;SDS011;310;48.490;9.200;2023-04-10T02:31:56;2.57;;;1.63;;
651;SDS011;310;48.490;9.200;2023-04-10T02:34:22;1.90;;;1.10;;
651;SDS011;310;48.490;9.200;2023-04-10T02:36:48;1.90;;;1.17;;
651;SDS011;310;48.490;9.200;2023-04-10T02:39:13;2.00;;;1.20;;
651;SDS011;310;48.490;9.200;2023-04-10T02:41:39;1.90;;;1.20;;
651;SDS011;310;48.490;9.200;2023-04-10T02:44:05;1.90;;;1.10;;
651;SDS011;310;48.490;9.200;2023-04-10T02:46:30;2.27;;;1.30;;
651;SDS011;310;48.490;9.200;2023-04-10T02:48:56;2.20;;;1.37;;
651;SDS011;310;48.490;9.200;2023-04-10T02:51:23;1.90;;;1.17;;
651;SDS011;310;48.490;9.200;2023-04-10T02:53:48;1.90;;;1.10;;
651;SDS011;310;48.490;9.200;2023-04-10T02:56:14;1.90;;;1.10;;
651;SDS011;310;48.490;9.200;2023-04-10T02:58:40;2.00;;;1.20;;
651;SDS011;310;48.490;9.200;2023-04-10T03:01:09;2.20;;;1.40;;
651;SDS011;310;48.490;9.200;2023-04-10T03:03:35;1.93;;;1.23;;
651;SDS011;310;48.490;9.200;2023-04-10T03:06:01;2.00;;;1.20;;
651;SDS011;310;48.490;9.200;2023-04-10T03:08:26;2.00;;;1.20;;
651;SDS011;310;48.490;9.200;2023-04-10T03:10:54;1.95;;;1.13;;
651;SDS011;310;48.490;9.200;2023-04-10T03:13:20;2.20;;;1.30;;
651;SDS011;310;48.490;9.200;2023-04-10T03:15:47;2.10;;;1.67;;
651;SDS011;310;48.490;9.200;2023-04-10T03:18:12;1.80;;;1.10;;
651;SDS011;310;48.490;9.200;2023-04-10T03:20:38;2.07;;;1.30;;
651;SDS011;310;48.490;9.200;2023-04-10T03:23:04;2.00;;;1.20;;
651;SDS011;310;48.490;9.200;2023-04-10T03:25:32;1.88;;;1.10;;
651;SDS011;310;48.490;9.200;2023-04-10T03:27:58;2.80;;;2.05;;
651;SDS011;310;48.490;9.200;2023-04-10T03:30:24;2.00;;;1.20;;
651;SDS011;310;48.490;9.200;2023-04-10T03:32:50;2.40;;;1.63;;
651;SDS011;310;48.490;9.200;2023-04-10T03:35:15;2.00;;;1.10;;
651;SDS011;310;48.490;9.200;2023-04-10T03:37:41;1.90;;;1.10;;
651;SDS011;310;48.490;9.200;2023-04-10T03:40:09;2.20;;;1.43;;
651;SDS011;310;48.490;9.200;2023-04-10T03:42:36;2.10;;;1.30;;
651;SDS011;310;48.490;9.200;2023-04-10T03:45:02;2.00;;;1.10;;
651;SDS011;310;48.490;9.200;2023-04-10T03:47:31;2.10;;;1.27;;
651;SDS011;310;48.490;9.200;2023-04-10T03:49:57;2.20;;;1.30;;
651;SDS011;310;48.490;9.200;2023-04-10T03:52:23;2.10;;;1.20;;
651;SDS011;310;48.490;9.200;2023-04-10T03:54:50;3.60;;;1.52;;
651;SDS011;310;48.490;9.200;2023-04-10T03:57:18;2.00;;;1.27;;
651;SDS011;310;48.490;9.200;2023-04-10T03:59:45;2.05;;;1.20;;
651;SDS011;310;48.490;9.200;2023-04-10T04:02:11;2.03;;;1.20;;
651;SDS011;310;48.490;9.200;2023-04-10T04:04:37;2.00;;;1.10;;
651;SDS011;310;48.490;9.200;2023-04-10T04:07:03;2.10;;;1.20;;
651;SDS011;310;48.490;9.200;2023-04-10T04:09:29;2.20;;;1.30;;
651;SDS011;310;48.490;9.200;2023-04-10T04:11:55;2.10;;;1.20;;
651;SDS011;310;48.490;9.200;2023-04-10T04:14:21;2.00;;;1.10;;
651;SDS011;310;48.490;9.200;2023-04-10T04:16:47;2.00;;;1.10;;
651;SDS011;310;48.490;9.200;2023-04-10T04:19:13;3.03;;;1.73;;
651;SDS011;310;48.490;9.200;2023-04-10T04:21:39;2.00;;;1.20;;
651;SDS011;310;48.490;9.200;2023-04-10T04:24:05;2.73;;;1.80;;
651;SDS011;310;48.490;9.200;2023-04-10T04:26:30;2.10;;;1.20;;
651;SDS011;310;48.490;9.200;2023-04-10T04:28:56;2.13;;;1.20;;
651;SDS011;310;48.490;9.200;2023-04-10T04:31:22;2.20;;;1.30;;
651;SDS011;310;48.490;9.200;2023-04-10T04:33:48;2.00;;;1.20;;
651;SDS011;310;48.490;9.200;2023-04-10T04:36:13;2.60;;;1.50;;
651;SDS011;310;48.490;9.200;2023-04-10T04:38:39;2.07;;;1.13;;
651;SDS011;310;48.490;9.200;2023-04-10T04:41:05;2.10;;;1.20;;
651;SDS011;310;48.490;9.200;2023-04-10T04:43:30;2.30;;;1.37;;
651;SDS011;310;48.490;9.200;2023-04-10T04:45:56;2.00;;;1.00;;
651;SDS011;310;48.490;9.200;2023-04-10T04:48:22;2.10;;;1.10;;
651;SDS011;310;48.490;9.200;2023-04-10T04:50:47;2.40;;;1.40;;
651;SDS011;310;48.490;9.200;2023-04-10T04:53:13;2.20;;;1.30;;
651;SDS011;310;48.490;9.200;2023-04-10T04:55:38;2.20;;;1.20;;
651;SDS011;310;48.490;9.200;2023-04-10T04:58:04;2.33;;;1.30;;
651;SDS011;310;48.490;9.200;2023-04-10T05:00:30;2.10;;;1.10;;
651;SDS011;310;48.490;9.200;2023-04-10T05:02:56;2.00;;;1.00;;
651;SDS011;310;48.490;9.200;2023-04-10T05:05:21;2.20;;;1.20;;
651;SDS011;310;48.490;9.200;2023-04-10T05:07:47;2.10;;;1.10;;
651;SDS011;310;48.490;9.200;2023-04-10T05:10:12;2.10;;;1.10;;
651;SDS011;310;48.490;9.200;2023-04-10T05:12:38;2.10;;;1.10;;
651;SDS011;310;48.490;9.200;2023-04-10T05:15:06;2.10;;;1.10;;
651;SDS011;310;48.490;9.200;2023-04-10T05:17:31;2.10;;;1.10;;
651;SDS011;310;48.490;9.200;2023-04-10T05:19:57;2.60;;;1.53;;
651;SDS011;310;48.490;9.200;2023-04-10T05:22:22;2.00;;;1.10;;
651;SDS011;310;48.490;9.200;2023-04-10T05:24:48;2.30;;;1.37;;
651;SDS011;310;48.490;9.200;2023-04-10T05:27:14;2.40;;;1.40;;
651;SDS011;310;48.490;9.200;2023-04-10T05:29:39;2.20;;;1.20;;
651;SDS011;310;48.490;9.200;2023-04-10T05:32:05;2.53;;;1.43;;
651;SDS011;310;48.490;9.200;2023-04-10T05:34:30;2.10;;;1.10;;
651;SDS011;310;48.490;9.200;2023-04-10T05:36:56;2.10;;;1.10;;
651;SDS011;310;48.490;9.200;2023-04-10T05:39:21;2.10;;;1.10;;
651;SDS011;310;48.490;9.200;2023-04-10T05:41:47;2.10;;;1.10;;
651;SDS011;310;48.490;9.200;2023-04-10T05:44:12;2.70;;;1.67;;
651;SDS011;310;48.490;9.200;2023-04-10T05:46:38;6.57;;;2.27;;
651;SDS011;310;48.490;9.200;2023-04-10T05:49:04;4.37;;;2.03;;
651;SDS011;310;48.490;9.200;2023-04-10T05:51:29;2.73;;;1.30;;
651;SDS011;310;48.490;9.200;2023-04-10T05:53:55;2.10;;;1.00;;
651;SDS011;310;48.490;9.200;2023-04-10T05:56:21;2.20;;;1.20;;
651;SDS011;310;48.490;9.200;2023-04-10T05:58:47;2.30;;;1.20;;
651;SDS011;310;48.490;9.200;2023-04-10T06:01:12;2.13;;;1.10;;
651;SDS011;310;48.490;9.200;2023-04-10T06:03:38;2.50;;;1.48;;
651;SDS011;310;48.490;9.200;2023-04-10T06:06:05;2.20;;;1.13;;
651;SDS011;310;48.490;9.200;2023-04-10T06:08:31;2.40;;;1.30;;
651;SDS011;310;48.490;9.200;2023-04-10T06:10:58;2.10;;;1.10;;
651;SDS011;310;48.490;9.200;2023-04-10T06:13:24;2.40;;;1.40;;
651;SDS011;310;48.490;9.200;2023-04-10T06:15:51;2.10;;;1.10;;
651;SDS011;310;48.490;9.200;2023-04-10T06:18:17;2.10;;;1.13;;
651;SDS011;310;48.490;9.200;2023-04-10T06:20:42;2.93;;;1.73;;
651;SDS011;310;48.490;9.200;2023-04-10T06:23:08;2.10;;;1.10;;
651;SDS011;310;48.490;9.200;2023-04-10T06:25:34;2.40;;;1.40;;
651;SDS011;310;48.490;9.200;2023-04-10T06:27:59;2.10;;;1.10;;
651;SDS011;310;48.490;9.200;2023-04-10T06:30:25;3.50;;;1.50;;
651;SDS011;310;48.490;9.200;2023-04-10T06:32:51;2.10;;;1.20;;
651;SDS011;310;48.490;9.200;2023-04-10T06:35:16;2.30;;;1.30;;
651;SDS011;310;48.490;9.200;2023-04-10T06:37:42;2.10;;;1.20;;
651;SDS011;310;48.490;9.200;2023-04-10T06:40:08;2.50;;;1.60;;
651;SDS011;310;48.490;9.200;2023-04-10T06:42:35;2.85;;;1.80;;
651;SDS011;310;48.490;9.200;2023-04-10T06:45:01;2.10;;;1.10;;
651;SDS011;310;48.490;9.200;2023-04-10T06:47:27;2.42;;;1.50;;
651;SDS011;310;48.490;9.200;2023-04-10T06:49:53;2.10;;;1.20;;
651;SDS011;310;48.490;9.200;2023-04-10T06:52:19;2.10;;;1.10;;
651;SDS011;310;48.490;9.200;2023-04-10T06:54:45;2.10;;;1.13;;
651;SDS011;310;48.490;9.200;2023-04-10T06:57:10;4.20;;;1.93;;
651;SDS011;310;48.490;9.200;2023-04-10T06:59:36;2.00;;;1.20;;
651;SDS011;310;48.490;9.200;2023-04-10T07:02:02;2.10;;;1.20;;
651;SDS011;310;48.490;9.200;2023-04-10T07:04:28;2.27;;;1.30;;
651;SDS011;310;48.490;9.200;2023-04-10T07:06:53;2.20;;;1.30;;
651;SDS011;310;48.490;9.200;2023-04-10T07:09:19;2.10;;;1.20;;
651;SDS011;310;48.490;9.200;2023-04-10T07:11:44;2.00;;;1.20;;
651;SDS011;310;48.490;9.200;2023-04-10T07:14:10;1.97;;;1.17;;
651;SDS011;310;48.490;9.200;2023-04-10T07:16:36;2.10;;;1.30;;
651;SDS011;310;48.490;9.200;2023-04-10T07:19:02;2.90;;;1.30;;
651;SDS011;310;48.490;9.200;2023-04-10T07:21:27;2.20;;;1.20;;
651;SDS011;310;48.490;9.200;2023-04-10T07:23:53;1.90;;;1.20;;
651;SDS011;310;48.490;9.200;2023-04-10T07:26:19;1.80;;;1.10;;
651;SDS011;310;48.490;9.200;2023-04-10T07:28:45;2.00;;;1.30;;
651;SDS011;310;48.490;9.200;2023-04-10T07:31:10;1.90;;;1.13;;
651;SDS011;310;48.490;9.200;2023-04-10T07:33:37;1.90;;;1.13;;
651;SDS011;310;48.490;9.200;2023-04-10T07:36:03;2.00;;;1.30;;
651;SDS011;310;48.490;9.200;2023-04-10T07:38:30;1.77;;;1.07;;
651;SDS011;310;48.490;9.200;2023-04-10T07:40:56;2.50;;;1.40;;
651;SDS011;310;48.490;9.200;2023-04-10T07:43:22;1.90;;;1.20;;
651;SDS011;310;48.490;9.200;2023-04-10T07:45:48;2.20;;;1.40;;
651;SDS011;310;48.490;9.200;2023-04-10T07:48:14;1.83;;;1.20;;
651;SDS011;310;48.490;9.200;2023-04-10T07:50:40;2.30;;;1.50;;
651;SDS011;310;48.490;9.200;2023-04-10T07:53:05;1.90;;;1.10;;
651;SDS011;310;48.490;9.200;2023-04-10T07:55:37;1.90;;;1.20;;
651;SDS011;310;48.490;9.200;2023-04-10T07:58:07;1.80;;;1.10;;
651;SDS011;310;48.490;9.200;2023-04-10T08:00:33;1.80;;;1.10;;
651;SDS011;310;48.490;9.200;2023-04-10T08:02:58;1.80;;;1.10;;
651;SDS011;310;48.490;9.200;2023-04-10T08:05:25;1.90;;;1.20;;
651;SDS011;310;48.490;9.200;2023-04-10T08:07:51;2.00;;;1.30;;
651;SDS011;310;48.490;9.200;2023-04-10T08:10:16;2.00;;;1.30;;
651;SDS011;310;48.490;9.200;2023-04-10T08:12:43;2.20;;;1.30;;
651;SDS011;310;48.490;9.200;2023-04-10T08:15:08;3.60;;;1.70;;
651;SDS011;310;48.490;9.200;2023-04-10T08:17:35;2.00;;;1.30;;
651;SDS011;310;48.490;9.200;2023-04-10T08:20:00;2.20;;;1.40;;
651;SDS011;310;48.490;9.200;2023-04-10T08:22:26;1.97;;;1.30;;
651;SDS011;310;48.490;9.200;2023-04-10T08:24:51;2.00;;;1.40;;
651;SDS011;310;48.490;9.200;2023-04-10T08:27:17;2.10;;;1.40;;
651;SDS011;310;48.490;9.200;2023-04-10T08:29:43;1.80;;;1.10;;
651;SDS011;310;48.490;9.200;2023-04-10T08:32:08;2.10;;;1.43;;
651;SDS011;310;48.490;9.200;2023-04-10T08:34:34;2.00;;;1.30;;
651;SDS011;310;48.490;9.200;2023-04-10T08:37:00;2.87;;;1.43;;
651;SDS011;310;48.490;9.200;2023-04-10T08:39:29;1.90;;;1.23;;
651;SDS011;310;48.490;9.200;2023-04-10T08:41:54;2.30;;;1.43;;
651;SDS011;310;48.490;9.200;2023-04-10T08:44:20;3.10;;;1.53;;
651;SDS011;310;48.490;9.200;2023-04-10T08:46:46;2.57;;;1.43;;
651;SDS011;310;48.490;9.200;2023-04-10T08:49:16;1.80;;;1.20;;
651;SDS011;310;48.490;9.200;2023-04-10T08:51:56;1.90;;;1.30;;
651;SDS011;310;48.490;9.200;2023-04-10T08:54:31;1.80;;;1.20;;
651;SDS011;310;48.490;9.200;2023-04-10T08:56:58;1.90;;;1.20;;
651;SDS011;310;48.490;9.200;2023-04-10T08:59:29;1.90;;;1.20;;
651;SDS011;310;48.490;9.200;2023-04-10T09:01:55;1.90;;;1.30;;
651;SDS011;310;48.490;9.200;2023-04-10T09:04:22;1.90;;;1.23;;
651;SDS011;310;48.490;9.200;2023-04-10T09:06:49;2.93;;;1.37;;
651;SDS011;310;48.490;9.200;2023-04-10T09:09:16;2.13;;;1.40;;
651;SDS011;310;48.490;9.200;2023-04-10T09:14:20;1.97;;;1.30;;
651;SDS011;310;48.490;9.200;2023-04-10T09:16:46;2.00;;;1.20;;
651;SDS011;310;48.490;9.200;2023-04-10T09:19:12;2.00;;;1.30;;
651;SDS011;310;48.490;9.200;2023-04-10T09:21:37;1.90;;;1.10;;
651;SDS011;310;48.490;9.200;2023-04-10T09:24:03;2.33;;;1.40;;
651;SDS011;310;48.490;9.200;2023-04-10T09:26:32;2.10;;;1.30;;
651;SDS011;310;48.490;9.200;2023-04-10T09:29:01;2.10;;;1.30;;
651;SDS011;310;48.490;9.200;2023-04-10T09:36:42;2.10;;;1.20;;
651;SDS011;310;48.490;9.200;2023-04-10T09:39:16;2.30;;;1.47;;
651;SDS011;310;48.490;9.200;2023-04-10T09:41:49;2.33;;;1.40;;
651;SDS011;310;48.490;9.200;2023-04-10T09:44:17;2.40;;;1.40;;
651;SDS011;310;48.490;9.200;2023-04-10T09:46:53;2.40;;;1.40;;
651;SDS011;310;48.490;9.200;2023-04-10T09:49:19;2.33;;;1.20;;
651;SDS011;310;48.490;9.200;2023-04-10T09:51:44;2.40;;;1.30;;
651;SDS011;310;48.490;9.200;2023-04-10T09:54:11;2.60;;;1.30;;
651;SDS011;310;48.490;9.200;2023-04-10T09:56:37;2.50;;;1.20;;
651;SDS011;310;48.490;9.200;2023-04-10T09:59:04;3.13;;;1.40;;
651;SDS011;310;48.490;9.200;2023-04-10T10:01:31;2.60;;;1.20;;
651;SDS011;310;48.490;9.200;2023-04-10T10:04:01;2.63;;;1.30;;
651;SDS011;310;48.490;9.200;2023-04-10T10:06:29;2.60;;;1.10;;
651;SDS011;310;48.490;9.200;2023-04-10T10:09:02;2.80;;;1.30;;
651;SDS011;310;48.490;9.200;2023-04-10T10:11:29;2.83;;;1.30;;
651;SDS011;310;48.490;9.200;2023-04-10T10:14:01;2.90;;;1.30;;
651;SDS011;310;48.490;9.200;2023-04-10T10:19:18;3.10;;;1.50;;
651;SDS011;310;48.490;9.200;2023-04-10T10:21:51;3.00;;;1.30;;
651;SDS011;310;48.490;9.200;2023-04-10T10:24:18;3.77;;;1.57;;
651;SDS011;310;48.490;9.200;2023-04-10T10:26:44;3.10;;;1.30;;
651;SDS011;310;48.490;9.200;2023-04-10T10:29:13;3.20;;;1.30;;
651;SDS011;310;48.490;9.200;2023-04-10T10:31:41;3.40;;;1.50;;
651;SDS011;310;48.490;9.200;2023-04-10T10:34:07;3.20;;;1.30;;
651;SDS011;310;48.490;9.200;2023-04-10T10:36:34;3.23;;;1.30;;
651;SDS011;310;48.490;9.200;2023-04-10T10:44:51;3.23;;;1.23;;
651;SDS011;310;48.490;9.200;2023-04-10T10:47:23;3.20;;;1.20;;
651;SDS011;310;48.490;9.200;2023-04-10T10:49:54;3.30;;;1.30;;
651;SDS011;310;48.490;9.200;2023-04-10T10:58:04;3.90;;;1.50;;
651;SDS011;310;48.490;9.200;2023-04-10T11:05:51;3.40;;;1.20;;
651;SDS011;310;48.490;9.200;2023-04-10T11:11:39;3.60;;;1.13;;
651;SDS011;310;48.490;9.200;2023-04-10T11:16:20;3.60;;;1.23;;
651;SDS011;310;48.490;9.200;2023-04-10T11:21:19;3.70;;;1.30;;
651;SDS011;310;48.490;9.200;2023-04-10T11:31:45;4.20;;;1.20;;
651;SDS011;310;48.490;9.200;2023-04-10T11:34:18;4.23;;;1.30;;
651;SDS011;310;48.490;9.200;2023-04-10T11:36:43;4.17;;;1.13;;
651;SDS011;310;48.490;9.200;2023-04-10T11:39:10;4.20;;;1.20;;
651;SDS011;310;48.490;9.200;2023-04-10T11:41:44;4.13;;;1.07;;
651;SDS011;310;48.490;9.200;2023-04-10T11:44:13;4.10;;;1.27;;
651;SDS011;310;48.490;9.200;2023-04-10T11:46:45;4.77;;;1.20;;
651;SDS011;310;48.490;9.200;2023-04-10T11:49:11;3.97;;;1.20;;
651;SDS011;310;48.490;9.200;2023-04-10T11:51:43;4.27;;;1.30;;
651;SDS011;310;48.490;9.200;2023-04-10T11:54:13;3.80;;;1.37;;
651;SDS011;310;48.490;9.200;2023-04-10T11:56:45;3.50;;;1.10;;
651;SDS011;310;48.490;9.200;2023-04-10T11:59:23;3.57;;;1.10;;
651;SDS011;310;48.490;9.200;2023-04-10T12:01:49;3.50;;;1.30;;
651;SDS011;310;48.490;9.200;2023-04-10T12:04:19;3.30;;;1.10;;
651;SDS011;310;48.490;9.200;2023-04-10T12:06:49;3.30;;;1.20;;
651;SDS011;310;48.490;9.200;2023-04-10T12:09:17;3.20;;;1.27;;
651;SDS011;310;48.490;9.200;2023-04-10T12:14:22;3.00;;;1.23;;
651;SDS011;310;48.490;9.200;2023-04-10T12:16:53;2.50;;;1.10;;
651;SDS011;310;48.490;9.200;2023-04-10T12:19:18;2.60;;;1.47;;
651;SDS011;310;48.490;9.200;2023-04-10T12:21:44;2.40;;;1.20;;
651;SDS011;310;48.490;9.200;2023-04-10T12:24:10;2.30;;;1.10;;
651;SDS011;310;48.490;9.200;2023-04-10T12:26:36;2.80;;;1.23;;
651;SDS011;310;48.490;9.200;2023-04-10T12:29:02;2.63;;;1.30;;
651;SDS011;310;48.490;9.200;2023-04-10T12:31:32;2.40;;;1.10;;
651;SDS011;310;48.490;9.200;2023-04-10T12:34:00;2.23;;;1.17;;
651;SDS011;310;48.490;9.200;2023-04-10T12:36:28;2.30;;;1.23;;
651;SDS011;310;48.490;9.200;2023-04-10T12:38:56;2.20;;;1.23;;
651;SDS011;310;48.490;9.200;2023-04-10T12:41:26;2.10;;;1.00;;
651;SDS011;310;48.490;9.200;2023-04-10T12:44:05;2.30;;;1.20;;
651;SDS011;310;48.490;9.200;2023-04-10T12:46:35;2.60;;;1.30;;
651;SDS011;310;48.490;9.200;2023-04-10T12:49:11;2.40;;;1.07;;
651;SDS011;310;48.490;9.200;2023-04-10T12:51:48;2.40;;;1.20;;
651;SDS011;310;48.490;9.200;2023-04-10T12:56:51;2.90;;;1.30;;
651;SDS011;310;48.490;9.200;2023-04-10T12:59:18;2.30;;;1.13;;
651;SDS011;310;48.490;9.200;2023-04-10T13:01:44;2.13;;;1.10;;
651;SDS011;310;48.490;9.200;2023-04-10T13:04:09;2.30;;;1.20;;
651;SDS011;310;48.490;9.200;2023-04-10T13:06:42;2.60;;;1.20;;
651;SDS011;310;48.490;9.200;2023-04-10T13:09:11;2.67;;;1.20;;
651;SDS011;310;48.490;9.200;2023-04-10T13:11:38;2.60;;;1.20;;
651;SDS011;310;48.490;9.200;2023-04-10T13:14:04;2.70;;;1.10;;
651;SDS011;310;48.490;9.200;2023-04-10T13:16:29;2.70;;;1.27;;
651;SDS011;310;48.490;9.200;2023-04-10T13:18:55;2.67;;;1.20;;
651;SDS011;310;48.490;9.200;2023-04-10T13:21:21;2.53;;;1.10;;
651;SDS011;310;48.490;9.200;2023-04-10T13:23:50;2.90;;;1.30;;
651;SDS011;310;48.490;9.200;2023-04-10T13:26:16;3.47;;;1.40;;
651;SDS011;310;48.490;9.200;2023-04-10T13:28:41;2.83;;;1.27;;
651;SDS011;310;48.490;9.200;2023-04-10T13:31:07;2.80;;;1.37;;
651;SDS011;310;48.490;9.200;2023-04-10T13:33:32;2.80;;;1.30;;
651;SDS011;310;48.490;9.200;2023-04-10T13:35:58;2.80;;;1.40;;
651;SDS011;310;48.490;9.200;2023-04-10T13:38:24;2.80;;;1.20;;
651;SDS011;310;48.490;9.200;2023-04-10T13:40:51;2.60;;;1.30;;
651;SDS011;310;48.490;9.200;2023-04-10T13:43:17;2.50;;;1.00;;
651;SDS011;310;48.490;9.200;2023-04-10T13:45:43;2.40;;;1.20;;
651;SDS011;310;48.490;9.200;2023-04-10T13:48:08;3.37;;;1.40;;
651;SDS011;310;48.490;9.200;2023-04-10T13:50:34;2.50;;;1.20;;
651;SDS011;310;48.490;9.200;2023-04-10T13:53:00;2.83;;;1.33;;
651;SDS011;310;48.490;9.200;2023-04-10T13:55:25;2.50;;;1.20;;
651;SDS011;310;48.490;9.200;2023-04-10T13:57:51;2.40;;;1.20;;
651;SDS011;310;48.490;9.200;2023-04-10T14:00:17;2.40;;;1.30;;
651;SDS011;310;48.490;9.200;2023-04-10T14:02:42;2.50;;;1.10;;
651;SDS011;310;48.490;9.200;2023-04-10T14:05:08;2.40;;;1.10;;
651;SDS011;310;48.490;9.200;2023-04-10T14:07:34;2.50;;;1.17;;
651;SDS011;310;48.490;9.200;2023-04-10T14:10:00;2.87;;;1.23;;
651;SDS011;310;48.490;9.200;2023-04-10T14:12:26;2.80;;;1.20;;
651;SDS011;310;48.490;9.200;2023-04-10T14:14:52;5.47;;;1.30;;
651;SDS011;310;48.490;9.200;2023-04-10T14:17:17;3.00;;;1.30;;
651;SDS011;310;48.490;9.200;2023-04-10T14:19:43;3.40;;;1.40;;
651;SDS011;310;48.490;9.200;2023-04-10T14:22:10;3.10;;;1.20;;
651;SDS011;310;48.490;9.200;2023-04-10T14:24:36;3.40;;;1.40;;
651;SDS011;310;48.490;9.200;2023-04-10T14:27:02;3.80;;;1.40;;
651;SDS011;310;48.490;9.200;2023-04-10T14:29:28;3.80;;;1.50;;
651;SDS011;310;48.490;9.200;2023-04-10T14:31:54;3.50;;;1.20;;
651;SDS011;310;48.490;9.200;2023-04-10T14:34:20;3.60;;;1.33;;
651;SDS011;310;48.490;9.200;2023-04-10T14:36:46;3.50;;;1.40;;
651;SDS011;310;48.490;9.200;2023-04-10T14:39:12;3.53;;;1.63;;
651;SDS011;310;48.490;9.200;2023-04-10T14:41:37;3.00;;;1.23;;
651;SDS011;310;48.490;9.200;2023-04-10T14:44:03;3.20;;;1.37;;
651;SDS011;310;48.490;9.200;2023-04-10T14:46:29;3.27;;;1.43;;
651;SDS011;310;48.490;9.200;2023-04-10T14:48:54;2.90;;;1.20;;
651;SDS011;310;48.490;9.200;2023-04-10T14:51:20;2.90;;;1.30;;
651;SDS011;310;48.490;9.200;2023-04-10T14:53:45;2.80;;;1.20;;
651;SDS011;310;48.490;9.200;2023-04-10T14:56:11;2.90;;;1.30;;
651;SDS011;310;48.490;9.200;2023-04-10T14:58:38;3.13;;;1.50;;
651;SDS011;310;48.490;9.200;2023-04-10T15:01:10;3.00;;;1.20;;
651;SDS011;310;48.490;9.200;2023-04-10T15:03:37;2.70;;;1.10;;
651;SDS011;310;48.490;9.200;2023-04-10T15:06:03;3.50;;;1.43;;
651;SDS011;310;48.490;9.200;2023-04-10T15:08:29;3.40;;;1.43;;
651;SDS011;310;48.490;9.200;2023-04-10T15:10:55;3.60;;;1.50;;
651;SDS011;310;48.490;9.200;2023-04-10T15:13:20;2.90;;;1.20;;
651;SDS011;310;48.490;9.200;2023-04-10T15:15:46;3.13;;;1.30;;
651;SDS011;310;48.490;9.200;2023-04-10T15:18:13;3.80;;;1.30;;
651;SDS011;310;48.490;9.200;2023-04-10T15:20:39;3.80;;;1.30;;
651;SDS011;310;48.490;9.200;2023-04-10T15:23:05;3.97;;;1.30;;
651;SDS011;310;48.490;9.200;2023-04-10T15:25:33;4.10;;;1.20;;
651;SDS011;310;48.490;9.200;2023-04-10T15:27:59;4.83;;;1.27;;
651;SDS011;310;48.490;9.200;2023-04-10T15:30:25;4.50;;;1.30;;
651;SDS011;310;48.490;9.200;2023-04-10T15:32:50;4.60;;;1.30;;
651;SDS011;310;48.490;9.200;2023-04-10T15:35:16;4.67;;;1.27;;
651;SDS011;310;48.490;9.200;2023-04-10T15:37:42;4.67;;;1.30;;
651;SDS011;310;48.490;9.200;2023-04-10T15:40:08;5.37;;;1.33;;
651;SDS011;310;48.490;9.200;2023-04-10T15:42:34;4.77;;;1.30;;
651;SDS011;310;48.490;9.200;2023-04-10T15:45:00;4.87;;;1.40;;
651;SDS011;310;48.490;9.200;2023-04-10T15:47:27;4.77;;;1.23;;
651;SDS011;310;48.490;9.200;2023-04-10T15:49:53;4.60;;;1.20;;
651;SDS011;310;48.490;9.200;2023-04-10T15:52:20;4.80;;;1.40;;
651;SDS011;310;48.490;9.200;2023-04-10T15:54:46;4.80;;;1.40;;
651;SDS011;310;48.490;9.200;2023-04-10T15:57:11;4.70;;;1.20;;
651;SDS011;310;48.490;9.200;2023-04-10T15:59:37;4.83;;;1.30;;
651;SDS011;310;48.490;9.200;2023-04-10T16:02:03;5.20;;;1.30;;
651;SDS011;310;48.490;9.200;2023-04-10T16:04:29;4.80;;;1.30;;
651;SDS011;310;48.490;9.200;2023-04-10T16:06:54;4.87;;;1.30;;
651;SDS011;310;48.490;9.200;2023-04-10T16:09:20;4.90;;;1.40;;
651;SDS011;310;48.490;9.200;2023-04-10T16:11:46;4.97;;;1.40;;
651;SDS011;310;48.490;9.200;2023-04-10T16:14:13;4.93;;;1.40;;
651;SDS011;310;48.490;9.200;2023-04-10T16:16:39;4.87;;;1.30;;
651;SDS011;310;48.490;9.200;2023-04-10T16:19:05;4.90;;;1.20;;
651;SDS011;310;48.490;9.200;2023-04-10T16:21:30;5.00;;;1.40;;
651;SDS011;310;48.490;9.200;2023-04-10T16:23:57;4.80;;;1.20;;
651;SDS011;310;48.490;9.200;2023-04-10T16:26:24;4.87;;;1.33;;
651;SDS011;310;48.490;9.200;2023-04-10T16:28:49;4.90;;;1.40;;
651;SDS011;310;48.490;9.200;2023-04-10T16:31:15;4.80;;;1.30;;
651;SDS011;310;48.490;9.200;2023-04-10T16:33:41;4.90;;;1.40;;
651;SDS011;310;48.490;9.200;2023-04-10T16:36:06;4.90;;;1.30;;
651;SDS011;310;48.490;9.200;2023-04-10T16:38:33;4.90;;;1.30;;
651;SDS011;310;48.490;9.200;2023-04-10T16:41:03;4.80;;;1.40;;
651;SDS011;310;48.490;9.200;2023-04-10T16:43:29;4.77;;;1.40;;
651;SDS011;310;48.490;9.200;2023-04-10T16:45:55;4.70;;;1.30;;